Time;durP1;ratioP1;P1;durP2;ratioP2;P2;SDS_P1;SDS_P2;PMS_P1;PMS_P2;Temp;Humidity;BMP_temperature;BMP_pressure;BME280_temperature;BME280_humidity;BME280_pressure;Samples;Min_cycle;Max_cycle;Signal;HPM_P1;HPM_P2
2022/05/25 00:01:11;;;;;;;16.80;11.45;;;;;;;;;;5058922;28;20518;-53
2022/05/25 00:03:38;;;;;;;14.65;9.98;;;;;;;;;;5060976;28;20107;-53
2022/05/25 00:06:11;;;;;;;18.33;10.30;;;;;;;;;;5061375;28;20543;-50
2022/05/25 00:08:40;;;;;;;19.48;11.20;;;;;;;;;;5062608;28;20068;-54
2022/05/25 00:11:07;;;;;;;20.35;10.10;;;;;;;;;;5059971;28;20048;-49
2022/05/25 00:13:40;;;;;;;15.48;9.48;;;;;;;;;;5062018;28;20091;-53
2022/05/25 00:16:06;;;;;;;17.10;10.80;;;;;;;;;;5064298;28;20048;-61
2022/05/25 00:18:33;;;;;;;14.57;10.10;;;;;;;;;;5062885;28;20048;-56
2022/05/25 00:21:06;;;;;;;14.73;10.27;;;;;;;;;;5060569;28;20126;-58
2022/05/25 00:23:32;;;;;;;16.20;9.75;;;;;;;;;;5061801;28;20052;-58
2022/05/25 00:25:59;;;;;;;21.98;10.13;;;;;;;;;;5060543;28;20138;-58
2022/05/25 00:28:32;;;;;;;15.25;9.27;;;;;;;;;;5058826;28;20048;-58
2022/05/25 00:30:58;;;;;;;12.15;8.20;;;;;;;;;;5062517;28;20590;-58
2022/05/25 00:33:24;;;;;;;15.63;8.18;;;;;;;;;;5062472;28;20490;-58
2022/05/25 00:35:58;;;;;;;16.42;9.60;;;;;;;;;;5057413;28;20090;-54
2022/05/25 00:38:24;;;;;;;14.48;8.18;;;;;;;;;;5059139;28;20087;-58
2022/05/25 00:40:50;;;;;;;17.38;8.25;;;;;;;;;;5060672;28;20084;-58
2022/05/25 00:43:24;;;;;;;14.15;8.48;;;;;;;;;;5061792;28;20080;-59
2022/05/25 00:45:53;;;;;;;17.80;8.13;;;;;;;;;;5063755;28;20044;-58
2022/05/25 00:48:24;;;;;;;15.50;9.40;;;;;;;;;;5057553;28;20103;-58
2022/05/25 00:51:32;;;;;;;17.67;8.65;;;;;;;;;;5058512;28;20041;-59
2022/05/25 00:53:54;;;;;;;16.08;7.75;;;;;;;;;;5059345;28;20138;-58
2022/05/25 00:56:29;;;;;;;16.23;8.20;;;;;;;;;;5062505;28;20076;-57
2022/05/25 00:59:04;;;;;;;19.98;7.72;;;;;;;;;;5060360;28;20091;-61
2022/05/25 01:01:37;;;;;;;18.88;9.27;;;;;;;;;;5079639;28;20521;-60
2022/05/25 01:04:03;;;;;;;20.33;8.75;;;;;;;;;;5081532;28;20056;-60
2022/05/25 01:06:36;;;;;;;13.02;7.32;;;;;;;;;;5080819;28;20076;-60
2022/05/25 01:09:15;;;;;;;20.27;9.43;;;;;;;;;;5078731;28;20503;-60
2022/05/25 01:11:44;;;;;;;20.83;8.25;;;;;;;;;;5085704;28;20094;-61
2022/05/25 01:14:17;;;;;;;17.08;8.15;;;;;;;;;;5080148;28;20079;-52
2022/05/25 01:16:43;;;;;;;11.80;8.50;;;;;;;;;;5076163;28;20523;-54
2022/05/25 01:19:22;;;;;;;16.17;7.95;;;;;;;;;;5081400;28;20570;-55
2022/05/25 01:22:14;;;;;;;16.58;7.65;;;;;;;;;;5078845;28;20048;-55
2022/05/25 01:25:07;;;;;;;14.65;8.65;;;;;;;;;;5080873;28;20079;-52
2022/05/25 01:27:44;;;;;;;18.95;9.02;;;;;;;;;;5079613;28;20099;-54
2022/05/25 01:30:10;;;;;;;21.10;8.88;;;;;;;;;;5079041;28;20087;-54
2022/05/25 01:32:57;;;;;;;21.70;8.60;;;;;;;;;;5080147;28;20091;-54
2022/05/25 01:35:45;;;;;;;16.25;9.02;;;;;;;;;;5082179;28;20048;-58
2022/05/25 01:38:15;;;;;;;13.88;8.13;;;;;;;;;;5080121;28;20159;-58
2022/05/25 01:41:02;;;;;;;19.67;9.38;;;;;;;;;;5080485;28;20087;-58
2022/05/25 01:43:33;;;;;;;17.88;8.65;;;;;;;;;;5080892;28;20052;-58
2022/05/25 01:46:10;;;;;;;15.70;8.07;;;;;;;;;;5079443;28;20044;-61
2022/05/25 01:48:45;;;;;;;17.77;8.88;;;;;;;;;;5041351;28;20161;-58
2022/05/25 01:51:42;;;;;;;17.08;8.10;;;;;;;;;;5040132;28;20053;-51
2022/05/25 01:54:09;;;;;;;22.10;8.52;;;;;;;;;;5039614;28;20081;-52
2022/05/25 01:56:44;;;;;;;14.80;7.95;;;;;;;;;;5038243;28;20049;-51
2022/05/25 01:59:12;;;;;;;15.52;8.50;;;;;;;;;;5034144;28;20092;-55
2022/05/25 02:04:19;;;;;;;11.60;7.30;;;;;;;;;;5039709;28;20084;-53
2022/05/25 02:04:49;;;;;;;18.85;7.93;;;;;;;;;;5037780;28;20555;-53
2022/05/25 02:07:29;;;;;;;14.02;8.70;;;;;;;;;;5038644;28;20084;-54
2022/05/25 02:10:05;;;;;;;16.55;8.68;;;;;;;;;;5038775;28;20080;-48
2022/05/25 02:12:51;;;;;;;13.88;7.88;;;;;;;;;;5043259;28;20110;-54
2022/05/25 02:15:24;;;;;;;15.75;8.07;;;;;;;;;;5042994;28;20114;-46
2022/05/25 02:18:23;;;;;;;19.52;8.73;;;;;;;;;;5038720;28;20092;-49
2022/05/25 02:21:08;;;;;;;17.42;8.63;;;;;;;;;;5021218;28;20084;-52
2022/05/25 02:23:38;;;;;;;15.27;7.43;;;;;;;;;;5044810;28;20077;-52
2022/05/25 02:26:29;;;;;;;13.40;7.80;;;;;;;;;;5040417;28;20504;-49
2022/05/25 02:29:03;;;;;;;20.35;8.05;;;;;;;;;;5041953;28;20132;-58
2022/05/25 02:31:40;;;;;;;11.82;7.35;;;;;;;;;;5041320;28;20079;-61
2022/05/25 02:34:09;;;;;;;19.38;8.48;;;;;;;;;;5040960;28;20558;-53
2022/05/25 02:36:37;;;;;;;21.52;7.32;;;;;;;;;;5039961;28;20060;-51
2022/05/25 02:39:11;;;;;;;20.23;7.95;;;;;;;;;;5040796;28;20449;-47
2022/05/25 02:41:48;;;;;;;14.82;7.32;;;;;;;;;;5041078;28;20079;-48
2022/05/25 02:44:21;;;;;;;12.50;7.63;;;;;;;;;;5041420;28;20123;-52
2022/05/25 02:46:54;;;;;;;16.40;7.67;;;;;;;;;;5039858;28;20452;-50
2022/05/25 02:49:35;;;;;;;11.85;6.20;;;;;;;;;;5062120;28;20045;-58
2022/05/25 02:52:01;;;;;;;15.57;8.15;;;;;;;;;;5061062;28;20107;-53
2022/05/25 02:54:27;;;;;;;14.20;7.13;;;;;;;;;;5058824;28;20076;-49
2022/05/25 02:57:01;;;;;;;18.13;6.10;;;;;;;;;;5061581;28;20080;-54
2022/05/25 02:59:27;;;;;;;15.90;6.35;;;;;;;;;;5062265;28;20190;-54
2022/05/25 03:01:53;;;;;;;18.80;7.20;;;;;;;;;;5059805;28;20076;-51
2022/05/25 03:04:27;;;;;;;14.30;6.70;;;;;;;;;;5061802;28;20049;-53
2022/05/25 03:06:54;;;;;;;9.23;5.27;;;;;;;;;;5062413;28;20053;-60
2022/05/25 03:09:20;;;;;;;17.55;7.05;;;;;;;;;;5059843;28;20088;-55
2022/05/25 03:11:53;;;;;;;22.75;6.80;;;;;;;;;;5062851;28;20110;-54
2022/05/25 03:14:19;;;;;;;12.82;5.80;;;;;;;;;;5060630;28;20088;-53
2022/05/25 03:16:46;;;;;;;17.15;6.47;;;;;;;;;;5059373;28;20076;-54
2022/05/25 03:19:19;;;;;;;19.20;6.32;;;;;;;;;;5065019;28;20044;-55
2022/05/25 03:21:46;;;;;;;18.10;6.15;;;;;;;;;;5065743;28;20084;-50
2022/05/25 03:24:14;;;;;;;19.75;5.90;;;;;;;;;;5059006;28;20080;-56
2022/05/25 03:26:47;;;;;;;11.05;4.00;;;;;;;;;;5062917;28;20092;-53
2022/05/25 03:29:17;;;;;;;14.00;5.18;;;;;;;;;;5063214;28;20131;-54
2022/05/25 03:31:43;;;;;;;12.90;5.20;;;;;;;;;;5062752;28;20566;-55
2022/05/25 03:34:17;;;;;;;15.07;5.03;;;;;;;;;;5060763;28;20039;-54
2022/05/25 03:36:44;;;;;;;12.27;5.38;;;;;;;;;;5062248;28;20072;-55
2022/05/25 03:39:11;;;;;;;19.73;5.78;;;;;;;;;;5064561;28;20609;-54
2022/05/25 03:41:44;;;;;;;20.10;4.70;;;;;;;;;;5062952;28;20476;-51
2022/05/25 03:44:11;;;;;;;14.35;5.53;;;;;;;;;;5062145;28;20545;-51
2022/05/25 03:46:38;;;;;;;22.23;4.95;;;;;;;;;;5059823;28;20088;-60
2022/05/25 03:49:17;;;;;;;20.83;4.85;;;;;;;;;;5064425;28;20064;-58
2022/05/25 03:51:44;;;;;;;20.52;5.43;;;;;;;;;;5063148;28;20076;-58
2022/05/25 03:54:11;;;;;;;13.27;4.00;;;;;;;;;;5059521;28;20041;-59
2022/05/25 03:56:45;;;;;;;16.30;4.90;;;;;;;;;;5061608;28;20102;-58
2022/05/25 03:59:11;;;;;;;11.80;4.28;;;;;;;;;;5056654;28;20584;-58
2022/05/25 04:01:38;;;;;;;13.57;4.32;;;;;;;;;;5060670;28;20154;-58
2022/05/25 04:04:11;;;;;;;17.80;4.63;;;;;;;;;;5057368;28;20052;-54
2022/05/25 04:06:38;;;;;;;21.85;4.68;;;;;;;;;;5062283;28;20496;-58
2022/05/25 04:09:05;;;;;;;14.98;3.80;;;;;;;;;;5061317;28;20052;-57
2022/05/25 04:11:40;;;;;;;21.05;4.38;;;;;;;;;;5062854;28;20106;-58
2022/05/25 04:14:06;;;;;;;;;;;;;;;;;;5058671;28;20053;-58
2022/05/25 04:16:33;;;;;;;19.90;4.40;;;;;;;;;;5063104;28;19921;-57
2022/05/25 04:19:06;;;;;;;17.33;4.60;;;;;;;;;;5060588;28;20682;-58
2022/05/25 04:21:32;;;;;;;16.73;5.22;;;;;;;;;;5061304;28;20141;-58
2022/05/25 04:23:59;;;;;;;16.92;4.18;;;;;;;;;;5059181;28;20135;-59
2022/05/25 04:26:36;;;;;;;14.38;4.28;;;;;;;;;;5064675;28;20515;-50
2022/05/25 04:29:03;;;;;;;13.25;4.82;;;;;;;;;;5061495;28;20049;-53
2022/05/25 04:31:29;;;;;;;14.52;4.47;;;;;;;;;;5059628;28;20392;-55
2022/05/25 04:34:02;;;;;;;25.80;4.43;;;;;;;;;;5060029;28;20131;-54
2022/05/25 04:36:28;;;;;;;18.20;4.22;;;;;;;;;;5060829;28;20100;-51
2022/05/25 04:38:55;;;;;;;14.93;4.63;;;;;;;;;;5062552;28;20083;-52
2022/05/25 04:41:28;;;;;;;14.90;4.10;;;;;;;;;;5056003;28;20128;-60
2022/05/25 04:43:55;;;;;;;13.43;3.83;;;;;;;;;;5057857;28;20049;-51
2022/05/25 04:46:21;;;;;;;19.98;3.97;;;;;;;;;;5058424;28;20080;-55
2022/05/25 04:49:01;;;;;;;19.33;3.53;;;;;;;;;;5061078;28;20060;-54
2022/05/25 04:51:28;;;;;;;13.82;3.55;;;;;;;;;;5059745;28;20077;-55
2022/05/25 04:54:08;;;;;;;20.83;3.90;;;;;;;;;;5041687;28;20080;-55
2022/05/25 04:59:26;;;;;;;11.35;3.38;;;;;;;;;;5060484;28;20103;-52
2022/05/25 05:01:52;;;;;;;20.40;4.15;;;;;;;;;;5057414;28;20052;-56
2022/05/25 05:04:19;;;;;;;14.90;3.85;;;;;;;;;;5059496;28;20068;-56
2022/05/25 05:06:52;;;;;;;17.25;3.83;;;;;;;;;;5055599;28;20045;-54
2022/05/25 05:09:19;;;;;;;10.40;3.17;;;;;;;;;;5062481;28;20495;-53
2022/05/25 05:11:46;;;;;;;13.30;3.40;;;;;;;;;;5058944;28;20481;-54
2022/05/25 05:14:19;;;;;;;12.05;3.47;;;;;;;;;;5057555;28;20742;-53
2022/05/25 05:16:45;;;;;;;10.75;3.28;;;;;;;;;;5058091;28;20085;-56
2022/05/25 05:19:12;;;;;;;18.73;3.92;;;;;;;;;;5056230;28;20054;-55
2022/05/25 05:21:45;;;;;;;12.65;3.70;;;;;;;;;;5060333;28;20049;-54
2022/05/25 05:24:11;;;;;;;13.43;4.05;;;;;;;;;;5058641;28;20045;-59
2022/05/25 05:26:38;;;;;;;13.75;3.40;;;;;;;;;;5062006;28;20048;-58
2022/05/25 05:29:11;;;;;;;9.98;4.00;;;;;;;;;;5057095;28;20083;-58
2022/05/25 05:31:37;;;;;;;10.73;3.95;;;;;;;;;;5055909;28;20041;-57
2022/05/25 05:34:04;;;;;;;15.93;4.38;;;;;;;;;;5061854;28;20074;-59
2022/05/25 05:36:44;;;;;;;18.98;4.18;;;;;;;;;;5052127;28;20045;-58
2022/05/25 05:39:11;;;;;;;13.95;4.07;;;;;;;;;;5058727;28;20567;-52
2022/05/25 05:41:48;;;;;;;8.32;3.78;;;;;;;;;;5057785;28;20053;-55
2022/05/25 05:44:16;;;;;;;12.25;4.20;;;;;;;;;;5061429;28;21000;-49
2022/05/25 05:46:43;;;;;;;12.35;3.85;;;;;;;;;;5060455;28;20045;-54
2022/05/25 05:49:23;;;;;;;12.02;3.67;;;;;;;;;;5066161;28;20508;-51
2022/05/25 05:51:50;;;;;;;15.60;4.03;;;;;;;;;;5063676;28;20067;-51
2022/05/25 05:54:23;;;;;;;13.80;4.47;;;;;;;;;;5065023;28;20040;-52
2022/05/25 05:56:49;;;;;;;16.75;3.88;;;;;;;;;;5065889;28;20095;-53
2022/05/25 05:59:16;;;;;;;11.77;4.00;;;;;;;;;;5067685;28;20095;-54
2022/05/25 06:01:49;;;;;;;15.73;4.20;;;;;;;;;;5060597;28;20056;-51
2022/05/25 06:04:16;;;;;;;15.07;4.60;;;;;;;;;;5064364;28;20527;-54
2022/05/25 06:06:43;;;;;;;16.10;4.10;;;;;;;;;;5062079;28;20299;-54
2022/05/25 06:09:16;;;;;;;8.88;4.10;;;;;;;;;;5063142;28;20049;-54
2022/05/25 06:11:43;;;;;;;12.88;3.80;;;;;;;;;;5065081;28;20044;-54
2022/05/25 06:14:09;;;;;;;13.23;3.70;;;;;;;;;;5066852;28;20092;-54
2022/05/25 06:19:30;;;;;;;11.57;4.30;;;;;;;;;;5062861;28;20080;-49
2022/05/25 06:22:10;;;;;;;11.38;4.10;;;;;;;;;;5081453;28;20117;-53
2022/05/25 06:24:38;;;;;;;10.05;4.20;;;;;;;;;;5084091;28;20076;-51
2022/05/25 06:27:12;;;;;;;14.05;3.50;;;;;;;;;;5085716;28;20052;-53
2022/05/25 06:29:40;;;;;;;16.10;4.22;;;;;;;;;;5084892;28;20419;-54
2022/05/25 06:32:07;;;;;;;11.82;4.07;;;;;;;;;;5084226;28;20090;-53
2022/05/25 06:34:40;;;;;;;13.25;3.95;;;;;;;;;;5084429;28;20632;-52
2022/05/25 06:37:12;;;;;;;13.80;4.75;;;;;;;;;;5083338;28;20101;-51
2022/05/25 06:39:38;;;;;;;11.00;4.40;;;;;;;;;;5083289;28;20087;-58
2022/05/25 06:42:12;;;;;;;12.45;4.30;;;;;;;;;;5085631;28;20055;-61
2022/05/25 06:44:41;;;;;;;12.38;5.13;;;;;;;;;;5084771;28;20055;-62
2022/05/25 06:47:07;;;;;;;10.10;4.90;;;;;;;;;;5083767;28;20052;-62
2022/05/25 06:49:53;;;;;;;10.50;5.05;;;;;;;;;;5063016;28;20055;-61
2022/05/25 06:52:21;;;;;;;11.38;4.63;;;;;;;;;;5063466;28;20102;-62
2022/05/25 06:54:55;;;;;;;16.48;5.20;;;;;;;;;;5061376;28;20044;-56
2022/05/25 06:57:22;;;;;;;12.65;4.63;;;;;;;;;;5064480;28;20072;-55
2022/05/25 06:59:49;;;;;;;17.88;4.80;;;;;;;;;;5058993;28;20957;-61
2022/05/25 07:02:22;;;;;;;11.25;4.43;;;;;;;;;;5062304;28;20053;-62
2022/05/25 07:04:49;;;;;;;20.50;4.32;;;;;;;;;;5059195;28;20113;-61
2022/05/25 07:07:15;;;;;;;13.52;3.80;;;;;;;;;;5061814;28;20090;-63
2022/05/25 07:09:48;;;;;;;8.13;3.40;;;;;;;;;;5063574;28;20064;-63
2022/05/25 07:12:15;;;;;;;10.15;4.00;;;;;;;;;;5081862;28;20131;-62
2022/05/25 07:14:42;;;;;;;12.75;3.28;;;;;;;;;;5085572;28;20040;-59
2022/05/25 07:17:15;;;;;;;7.43;2.78;;;;;;;;;;5081691;28;20103;-54
2022/05/25 07:19:41;;;;;;;12.95;2.72;;;;;;;;;;5081359;28;20056;-60
2022/05/25 07:22:09;;;;;;;6.93;2.30;;;;;;;;;;5081412;28;20101;-60
2022/05/25 07:24:45;;;;;;;11.07;2.33;;;;;;;;;;5085948;28;20063;-60
2022/05/25 07:27:11;;;;;;;5.97;2.50;;;;;;;;;;5080188;28;20080;-60
2022/05/25 07:29:37;;;;;;;9.88;2.25;;;;;;;;;;5083994;28;20411;-61
2022/05/25 07:32:12;;;;;;;7.72;2.08;;;;;;;;;;5061378;28;20132;-61
2022/05/25 07:35:08;;;;;;;8.70;2.03;;;;;;;;;;5065037;28;20056;-62
2022/05/25 07:37:43;;;;;;;7.22;1.98;;;;;;;;;;5047955;28;20048;-53
2022/05/25 07:40:31;;;;;;;6.85;2.05;;;;;;;;;;5064379;28;20397;-56
2022/05/25 07:43:08;;;;;;;24.20;2.25;;;;;;;;;;5059256;28;20088;-55
2022/05/25 07:45:35;;;;;;;5.82;1.73;;;;;;;;;;5064525;28;20055;-55
2022/05/25 07:48:02;;;;;;;6.13;1.80;;;;;;;;;;5054822;28;20155;-55
2022/05/25 07:50:42;;;;;;;5.60;1.80;;;;;;;;;;5042559;28;20183;-54
2022/05/25 07:56:03;;;;;;;10.27;2.00;;;;;;;;;;5040573;28;20045;-54
2022/05/25 07:58:30;;;;;;;6.22;1.85;;;;;;;;;;5038999;28;20690;-49
2022/05/25 08:00:59;;;;;;;7.45;1.80;;;;;;;;;;5042781;28;20041;-53
2022/05/25 08:06:18;;;;;;;11.68;1.60;;;;;;;;;;5039543;28;20615;-52
2022/05/25 08:08:51;;;;;;;8.88;2.15;;;;;;;;;;5040674;28;20147;-50
2022/05/25 08:11:20;;;;;;;6.68;1.73;;;;;;;;;;5036752;28;20049;-50
2022/05/25 08:13:48;;;;;;;9.40;1.80;;;;;;;;;;5042405;28;20085;-61
2022/05/25 08:16:21;;;;;;;6.18;1.88;;;;;;;;;;5041215;28;20076;-58
2022/05/25 08:18:47;;;;;;;9.77;2.20;;;;;;;;;;5043544;28;20084;-58
2022/05/25 08:21:14;;;;;;;10.23;2.20;;;;;;;;;;5043636;28;20100;-58
2022/05/25 08:24:07;;;;;;;6.72;1.83;;;;;;;;;;5043590;28;20051;-59
2022/05/25 08:26:33;;;;;;;5.90;1.98;;;;;;;;;;5036761;28;20100;-58
2022/05/25 08:29:07;;;;;;;10.13;2.15;;;;;;;;;;5041345;28;20057;-58
2022/05/25 08:31:34;;;;;;;10.27;2.05;;;;;;;;;;5040628;28;20076;-61
2022/05/25 08:34:01;;;;;;;6.82;1.85;;;;;;;;;;5042041;28;20056;-51
2022/05/25 08:36:34;;;;;;;9.93;2.25;;;;;;;;;;5039356;28;20566;-61
2022/05/25 08:39:01;;;;;;;10.93;2.00;;;;;;;;;;5038885;28;20137;-62
2022/05/25 08:41:37;;;;;;;14.75;2.15;;;;;;;;;;5041662;28;20054;-61
2022/05/25 08:44:11;;;;;;;4.25;1.80;;;;;;;;;;5040847;28;20080;-61
2022/05/25 08:46:38;;;;;;;13.05;2.20;;;;;;;;;;5039372;28;20049;-61
2022/05/25 08:49:10;;;;;;;9.25;2.00;;;;;;;;;;5051760;28;20061;-61
2022/05/25 08:51:47;;;;;;;6.43;1.67;;;;;;;;;;5058561;28;20040;-53
2022/05/25 08:54:15;;;;;;;8.77;1.45;;;;;;;;;;5059950;28;20044;-59
2022/05/25 08:56:56;;;;;;;9.85;2.05;;;;;;;;;;5058208;28;20052;-58
2022/05/25 08:59:30;;;;;;;7.72;1.90;;;;;;;;;;5059377;28;20114;-60
2022/05/25 09:02:00;;;;;;;7.22;2.15;;;;;;;;;;5058015;28;20076;-59
2022/05/25 09:04:30;;;;;;;4.30;1.95;;;;;;;;;;5059895;28;20496;-59
2022/05/25 09:07:23;;;;;;;9.95;2.10;;;;;;;;;;5055810;28;20508;-59
2022/05/25 09:09:50;;;;;;;7.35;1.80;;;;;;;;;;5059398;28;20091;-60
2022/05/25 09:12:29;;;;;;;10.60;2.20;;;;;;;;;;5059013;28;20045;-61
2022/05/25 09:15:19;;;;;;;3.13;1.55;;;;;;;;;;5060501;28;20084;-60
2022/05/25 09:18:24;;;;;;;6.30;2.05;;;;;;;;;;5055850;28;20629;-61
2022/05/25 09:20:51;;;;;;;7.82;2.08;;;;;;;;;;5035909;28;20099;-61
2022/05/25 09:23:24;;;;;;;7.43;2.30;;;;;;;;;;5059218;28;20130;-60
2022/05/25 09:25:51;;;;;;;7.80;2.05;;;;;;;;;;5078589;28;20454;-61
2022/05/25 09:28:22;;;;;;;5.93;2.03;;;;;;;;;;5081643;28;20048;-57
2022/05/25 09:30:57;;;;;;;4.85;1.80;;;;;;;;;;5059064;28;20044;-60
2022/05/25 09:33:42;;;;;;;6.25;2.35;;;;;;;;;;5058018;28;20504;-59
2022/05/25 09:36:30;;;;;;;10.10;2.53;;;;;;;;;;5060097;28;20500;-59
2022/05/25 09:38:59;;;;;;;14.07;2.22;;;;;;;;;;5060297;28;20144;-59
2022/05/25 09:41:33;;;;;;;4.88;2.22;;;;;;;;;;5057393;28;20044;-57
2022/05/25 09:44:02;;;;;;;8.00;2.28;;;;;;;;;;5059550;28;20052;-59
2022/05/25 09:46:37;;;;;;;4.53;2.15;;;;;;;;;;5057421;28;20174;-61
2022/05/25 09:49:36;;;;;;;9.23;2.20;;;;;;;;;;5061434;28;20062;-49
2022/05/25 09:52:14;;;;;;;6.25;2.20;;;;;;;;;;5054246;28;20088;-61
2022/05/25 09:54:56;;;;;;;3.85;1.90;;;;;;;;;;5059074;28;20084;-61
2022/05/25 09:57:34;;;;;;;14.48;2.47;;;;;;;;;;5058950;28;20048;-61
2022/05/25 10:00:10;;;;;;;5.60;2.03;;;;;;;;;;5059855;28;20108;-61
2022/05/25 10:02:42;;;;;;;11.77;2.70;;;;;;;;;;5058944;28;20057;-61
2022/05/25 10:05:17;;;;;;;7.28;2.20;;;;;;;;;;5058836;28;20041;-61
2022/05/25 10:07:52;;;;;;;7.80;2.30;;;;;;;;;;5059805;28;20103;-52
2022/05/25 10:10:28;;;;;;;11.20;2.10;;;;;;;;;;5062124;28;20580;-64
2022/05/25 10:12:59;;;;;;;12.13;2.10;;;;;;;;;;5060052;28;20099;-63
2022/05/25 10:15:34;;;;;;;8.38;2.22;;;;;;;;;;5059507;28;20123;-62
2022/05/25 10:18:01;;;;;;;5.20;2.13;;;;;;;;;;5061190;28;20091;-62
2022/05/25 10:20:30;;;;;;;5.28;2.05;;;;;;;;;;5061900;28;20103;-62
2022/05/25 10:23:03;;;;;;;13.85;2.78;;;;;;;;;;5060482;28;20479;-62
2022/05/25 10:25:48;;;;;;;9.13;3.05;;;;;;;;;;5062334;28;20060;-50
2022/05/25 10:28:29;;;;;;;8.07;2.60;;;;;;;;;;5059791;28;20067;-52
2022/05/25 10:37:03;;;;;;;9.97;2.43;;;;;;;;;;5064170;28;20419;-50
2022/05/25 10:39:38;;;;;;;14.73;2.75;;;;;;;;;;5063730;28;20303;-53
2022/05/25 10:42:05;;;;;;;11.07;3.08;;;;;;;;;;5064698;28;20045;-52
2022/05/25 10:44:48;;;;;;;6.20;2.28;;;;;;;;;;5064591;28;20122;-55
2022/05/25 10:47:29;;;;;;;5.53;2.00;;;;;;;;;;5064864;28;20045;-55
2022/05/25 10:50:03;;;;;;;3.35;2.28;;;;;;;;;;5065046;28;20067;-57
2022/05/25 10:52:39;;;;;;;6.57;2.50;;;;;;;;;;5061699;28;20110;-56
2022/05/25 10:55:07;;;;;;;3.22;1.98;;;;;;;;;;5063700;28;20658;-55
2022/05/25 10:57:44;;;;;;;5.50;2.10;;;;;;;;;;5066772;28;20044;-55
2022/05/25 11:00:28;;;;;;;4.57;1.75;;;;;;;;;;5063597;28;20053;-55
2022/05/25 11:02:54;;;;;;;8.20;1.70;;;;;;;;;;5062783;28;20107;-54
2022/05/25 11:05:28;;;;;;;6.85;1.90;;;;;;;;;;5083480;28;20052;-63
2022/05/25 11:08:01;;;;;;;7.78;2.33;;;;;;;;;;5079949;28;20071;-56
2022/05/25 11:10:36;;;;;;;6.35;2.08;;;;;;;;;;5082329;28;20500;-55
2022/05/25 11:13:27;;;;;;;5.25;1.52;;;;;;;;;;5085020;28;20121;-50
2022/05/25 11:16:03;;;;;;;3.72;1.80;;;;;;;;;;5081376;28;20068;-53
2022/05/25 11:18:39;;;;;;;8.25;1.88;;;;;;;;;;5079915;28;20507;-55
2022/05/25 11:21:16;;;;;;;9.35;1.80;;;;;;;;;;5082121;28;20048;-51
2022/05/25 11:23:55;;;;;;;9.38;1.80;;;;;;;;;;5064583;28;20483;-55
2022/05/25 11:26:25;;;;;;;6.93;1.80;;;;;;;;;;5068724;28;20165;-58
2022/05/25 11:29:26;;;;;;;6.07;1.30;;;;;;;;;;5064242;28;20101;-56
2022/05/25 11:32:13;;;;;;;3.47;1.17;;;;;;;;;;5057441;28;20073;-59
2022/05/25 11:35:05;;;;;;;3.63;1.63;;;;;;;;;;5063201;28;20462;-59
2022/05/25 11:38:07;;;;;;;3.08;1.10;;;;;;;;;;5062670;28;20052;-59
2022/05/25 11:40:44;;;;;;;5.43;1.30;;;;;;;;;;4964797;28;20114;-61
2022/05/25 11:43:24;;;;;;;6.28;1.30;;;;;;;;;;5069641;28;20098;-49
2022/05/25 11:45:57;;;;;;;7.95;1.50;;;;;;;;;;5080736;28;20079;-52
2022/05/25 11:49:02;;;;;;;14.07;1.40;;;;;;;;;;5070760;28;20560;-48
2022/05/25 11:51:55;;;;;;;6.72;1.13;;;;;;;;;;5053462;28;20084;-48
2022/05/25 11:54:41;;;;;;;3.80;1.40;;;;;;;;;;5064348;28;20057;-50
2022/05/25 11:57:18;;;;;;;5.25;1.25;;;;;;;;;;5056211;28;20079;-49
2022/05/25 12:00:10;;;;;;;4.85;1.45;;;;;;;;;;5058994;28;20087;-57
2022/05/25 12:02:49;;;;;;;10.20;1.73;;;;;;;;;;5029321;28;20088;-52
2022/05/25 12:05:34;;;;;;;4.13;1.20;;;;;;;;;;5061789;28;20051;-54
2022/05/25 12:08:26;;;;;;;6.30;1.73;;;;;;;;;;5059916;28;20125;-52
2022/05/25 12:11:04;;;;;;;5.45;1.38;;;;;;;;;;5061819;28;20300;-54
2022/05/25 12:13:49;;;;;;;5.65;1.27;;;;;;;;;;5061867;28;20102;-52
2022/05/25 12:16:21;;;;;;;6.68;1.95;;;;;;;;;;5060252;28;20041;-54
2022/05/25 12:19:13;;;;;;;2.67;1.50;;;;;;;;;;5060665;28;20041;-53
2022/05/25 12:21:49;;;;;;;6.82;2.10;;;;;;;;;;5062607;28;20045;-49
2022/05/25 12:24:24;;;;;;;4.15;1.27;;;;;;;;;;5059358;28;20048;-54
2022/05/25 12:26:50;;;;;;;4.68;1.90;;;;;;;;;;5059560;28;20053;-55
2022/05/25 12:29:22;;;;;;;5.67;1.77;;;;;;;;;;5063373;28;20405;-55
2022/05/25 12:31:55;;;;;;;;;;;;;;;;;;5062289;28;20056;-55
2022/05/25 12:34:34;;;;;;;7.28;1.58;;;;;;;;;;5059622;28;20003;-55
2022/05/25 12:37:09;;;;;;;7.75;1.95;;;;;;;;;;5061823;28;20052;-53
2022/05/25 12:39:48;;;;;;;8.70;1.42;;;;;;;;;;5061004;28;20095;-60
2022/05/25 12:42:24;;;;;;;5.78;1.90;;;;;;;;;;5054004;28;20127;-55
2022/05/25 12:50:54;;;;;;;5.18;1.63;;;;;;;;;;5059334;28;20161;-55
2022/05/25 12:53:46;;;;;;;9.20;1.45;;;;;;;;;;5051804;28;20428;-54
2022/05/25 12:56:15;;;;;;;6.82;1.25;;;;;;;;;;5056769;28;20080;-52
2022/05/25 12:58:52;;;;;;;9.70;1.70;;;;;;;;;;5059647;28;20079;-58
2022/05/25 13:01:28;;;;;;;12.50;1.60;;;;;;;;;;5060035;28;20048;-58
2022/05/25 13:04:13;;;;;;;4.97;1.48;;;;;;;;;;5060839;28;20492;-59
2022/05/25 13:06:43;;;;;;;6.53;1.30;;;;;;;;;;5057445;28;20072;-59
2022/05/25 13:09:40;;;;;;;3.65;1.08;;;;;;;;;;5062502;28;20044;-59
2022/05/25 13:12:25;;;;;;;2.83;1.08;;;;;;;;;;5061093;28;20870;-59
2022/05/25 13:14:58;;;;;;;5.93;1.30;;;;;;;;;;5063214;28;20110;-60
2022/05/25 13:17:40;;;;;;;6.45;1.90;;;;;;;;;;5055679;28;20076;-57
2022/05/25 13:20:28;;;;;;;6.93;1.80;;;;;;;;;;5057270;28;20081;-61
2022/05/25 13:22:56;;;;;;;3.25;1.45;;;;;;;;;;5059426;28;20080;-62
2022/05/25 13:25:41;;;;;;;6.65;1.90;;;;;;;;;;5061795;28;20842;-62
2022/05/25 13:28:12;;;;;;;;;;;;;;;;;;5062629;28;20580;-62
2022/05/25 13:30:57;;;;;;;3.88;1.95;;;;;;;;;;5058014;28;19967;-59
2022/05/25 13:33:35;;;;;;;5.90;1.67;;;;;;;;;;5059935;28;20053;-60
2022/05/25 13:36:14;;;;;;;6.20;1.70;;;;;;;;;;5063499;28;20540;-48
2022/05/25 13:38:54;;;;;;;9.85;1.55;;;;;;;;;;5061288;28;20099;-48
2022/05/25 13:41:30;;;;;;;6.95;1.85;;;;;;;;;;5059781;28;20052;-52
2022/05/25 13:44:00;;;;;;;7.07;1.58;;;;;;;;;;5059171;28;20053;-53
2022/05/25 13:46:32;;;;;;;7.57;1.35;;;;;;;;;;5063474;28;20059;-52
2022/05/25 13:49:12;;;;;;;10.63;1.40;;;;;;;;;;5059150;28;20049;-50
2022/05/25 13:51:39;;;;;;;6.65;1.27;;;;;;;;;;5058707;28;20052;-53
2022/05/25 13:54:26;;;;;;;9.02;1.55;;;;;;;;;;5058767;28;20534;-53
2022/05/25 13:57:11;;;;;;;8.27;1.20;;;;;;;;;;5059640;28;20496;-50
2022/05/25 13:59:44;;;;;;;8.85;1.35;;;;;;;;;;5061598;28;20549;-52
2022/05/25 14:02:16;;;;;;;3.47;1.38;;;;;;;;;;5058668;28;20658;-55
2022/05/25 14:04:44;;;;;;;7.38;1.40;;;;;;;;;;5058763;28;20102;-51
2022/05/25 14:07:37;;;;;;;3.90;1.15;;;;;;;;;;5056255;28;20049;-51
2022/05/25 14:13:20;;;;;;;6.72;1.40;;;;;;;;;;5059251;28;20068;-57
2022/05/25 14:16:22;;;;;;;7.45;1.75;;;;;;;;;;5059179;28;20099;-59
2022/05/25 14:18:57;;;;;;;6.90;1.58;;;;;;;;;;4979834;28;20078;-56
2022/05/25 14:21:35;;;;;;;6.50;1.10;;;;;;;;;;5043905;28;20130;-57
2022/05/25 14:24:16;;;;;;;10.85;1.20;;;;;;;;;;5056830;28;20080;-57
2022/05/25 14:26:44;;;;;;;8.88;1.60;;;;;;;;;;5059069;28;20118;-57
2022/05/25 14:29:19;;;;;;;7.07;1.50;;;;;;;;;;5061850;28;20074;-57
2022/05/25 14:31:47;;;;;;;5.75;1.25;;;;;;;;;;5058125;28;21870;-55
2022/05/25 14:34:15;;;;;;;14.30;1.40;;;;;;;;;;5060871;28;20127;-59
2022/05/25 14:36:52;;;;;;;9.82;1.70;;;;;;;;;;5059739;28;20059;-51
2022/05/25 14:39:22;;;;;;;5.07;1.40;;;;;;;;;;5058786;28;20067;-48
2022/05/25 14:42:07;;;;;;;5.45;1.45;;;;;;;;;;5061282;28;20133;-46
2022/05/25 14:44:39;;;;;;;6.63;1.20;;;;;;;;;;5060340;28;20051;-48
2022/05/25 14:47:12;;;;;;;;;;;;;;;;;;5060266;28;20119;-49
2022/05/25 14:49:56;;;;;;;6.57;1.15;;;;;;;;;;5058652;28;19995;-45
2022/05/25 14:52:30;;;;;;;4.43;1.50;;;;;;;;;;5060896;28;20582;-58
2022/05/25 14:55:13;;;;;;;8.48;1.70;;;;;;;;;;5048031;28;20053;-49
2022/05/25 14:58:01;;;;;;;6.43;1.70;;;;;;;;;;5059366;28;20048;-54
2022/05/25 15:00:28;;;;;;;6.50;1.40;;;;;;;;;;5060368;28;20080;-55
2022/05/25 15:03:02;;;;;;;7.18;1.40;;;;;;;;;;5058249;28;20083;-54
2022/05/25 15:05:29;;;;;;;;;;;;;;;;;;5059914;28;20049;-54
2022/05/25 15:07:56;;;;;;;14.00;2.63;;;;;;;;;;5056154;28;19975;-48
2022/05/25 15:10:31;;;;;;;13.65;2.53;;;;;;;;;;5057791;28;20048;-51
2022/05/25 15:12:58;;;;;;;5.75;1.70;;;;;;;;;;5058024;28;20040;-59
2022/05/25 15:18:31;;;;;;;5.68;1.60;;;;;;;;;;5059231;28;20072;-58
2022/05/25 15:20:59;;;;;;;5.85;2.15;;;;;;;;;;5056412;28;20759;-58
2022/05/25 15:23:57;;;;;;;10.02;2.05;;;;;;;;;;5050963;28;20113;-58
2022/05/25 15:26:28;;;;;;;13.88;2.00;;;;;;;;;;5058795;28;21057;-57
2022/05/25 15:29:11;;;;;;;4.22;1.60;;;;;;;;;;5058827;28;20521;-58
2022/05/25 15:31:57;;;;;;;10.23;1.90;;;;;;;;;;5055719;28;20583;-57
2022/05/25 15:34:31;;;;;;;6.55;1.70;;;;;;;;;;5056533;28;20044;-54
2022/05/25 15:37:02;;;;;;;10.10;1.60;;;;;;;;;;5053756;28;20056;-54
2022/05/25 15:39:28;;;;;;;9.50;1.70;;;;;;;;;;5057684;28;20099;-52
2022/05/25 15:42:01;;;;;;;7.57;1.67;;;;;;;;;;5058757;28;20130;-52
2022/05/25 15:44:28;;;;;;;10.18;2.15;;;;;;;;;;5057770;28;20538;-54
2022/05/25 15:46:54;;;;;;;9.23;1.85;;;;;;;;;;5054976;28;20558;-51